Time;durP1;ratioP1;P1;durP2;ratioP2;P2;SDS_P1;SDS_P2;PMS_P1;PMS_P2;Temp;Humidity;BMP_temperature;BMP_pressure;BME280_temperature;BME280_humidity;BME280_pressure;Samples;Min_cycle;Max_cycle;Signal;HPM_P1;HPM_P2
2023/04/24 00:01:58;;;;;;;15.50;14.60;;;;;;;;;;5041510;28;20048;-62
2023/04/24 00:04:25;;;;;;;14.90;14.10;;;;;;;;;;5038435;28;20116;-64
2023/04/24 00:06:53;;;;;;;15.27;14.40;;;;;;;;;;5039454;28;20024;-62
2023/04/24 00:09:19;;;;;;;14.85;14.05;;;;;;;;;;5039411;28;20040;-63
2023/04/24 00:11:44;;;;;;;15.88;14.88;;;;;;;;;;5036917;28;20571;-61
2023/04/24 00:14:10;;;;;;;15.50;14.57;;;;;;;;;;5039995;28;20044;-60
2023/04/24 00:16:35;;;;;;;14.65;13.85;;;;;;;;;;5038267;28;20057;-62
2023/04/24 00:19:00;;;;;;;14.80;14.00;;;;;;;;;;5039596;28;20029;-62
2023/04/24 00:21:26;;;;;;;15.00;14.18;;;;;;;;;;5039309;28;20024;-63
2023/04/24 00:23:52;;;;;;;16.63;15.52;;;;;;;;;;5041280;28;20575;-63
2023/04/24 00:26:17;;;;;;;14.73;13.93;;;;;;;;;;5040252;28;20032;-63
2023/04/24 00:28:43;;;;;;;15.68;14.68;;;;;;;;;;5037675;28;20029;-63
2023/04/24 00:31:08;;;;;;;14.50;13.70;;;;;;;;;;5043318;28;20040;-62
2023/04/24 00:33:33;;;;;;;14.90;14.00;;;;;;;;;;5038737;28;20377;-62
2023/04/24 00:35:59;;;;;;;15.55;14.55;;;;;;;;;;5040529;28;20037;-61
2023/04/24 00:38:24;;;;;;;15.38;14.48;;;;;;;;;;5040095;28;20036;-62
2023/04/24 00:40:50;;;;;;;15.07;14.20;;;;;;;;;;5040391;28;20021;-62
2023/04/24 00:43:15;;;;;;;14.85;14.02;;;;;;;;;;5042995;28;20021;-63
2023/04/24 00:45:41;;;;;;;13.80;13.10;;;;;;;;;;5044679;28;20650;-62
2023/04/24 00:48:07;;;;;;;15.50;14.60;;;;;;;;;;5038917;28;20044;-62
2023/04/24 00:50:33;;;;;;;15.18;14.27;;;;;;;;;;5038119;28;20029;-62
2023/04/24 00:52:58;;;;;;;15.75;14.77;;;;;;;;;;5039561;28;20366;-63
2023/04/24 00:55:24;;;;;;;14.70;13.90;;;;;;;;;;5038989;28;20029;-62
2023/04/24 00:57:50;;;;;;;14.48;13.73;;;;;;;;;;5038122;28;20643;-62
2023/04/24 01:00:16;;;;;;;15.75;14.75;;;;;;;;;;5039490;28;20053;-62
2023/04/24 01:02:45;;;;;;;15.38;14.48;;;;;;;;;;5042581;28;20590;-62
2023/04/24 01:05:14;;;;;;;14.95;14.15;;;;;;;;;;5040114;28;20048;-62
2023/04/24 01:07:45;;;;;;;15.32;14.43;;;;;;;;;;5035498;28;20112;-62
2023/04/24 01:10:11;;;;;;;14.25;13.55;;;;;;;;;;5054082;28;20048;-61
2023/04/24 01:12:36;;;;;;;14.88;14.07;;;;;;;;;;5069893;28;20071;-63
2023/04/24 01:15:03;;;;;;;14.30;13.60;;;;;;;;;;5048761;28;20029;-63
2023/04/24 01:17:29;;;;;;;14.70;13.90;;;;;;;;;;5042230;28;20041;-61
2023/04/24 01:19:56;;;;;;;14.63;13.82;;;;;;;;;;5033932;28;20028;-62
2023/04/24 01:22:21;;;;;;;13.88;13.18;;;;;;;;;;5038629;28;20087;-61
2023/04/24 01:24:47;;;;;;;15.35;14.45;;;;;;;;;;5039304;28;20476;-62
2023/04/24 01:27:13;;;;;;;15.23;14.32;;;;;;;;;;5037006;28;20835;-61
2023/04/24 01:29:38;;;;;;;14.77;13.98;;;;;;;;;;5038493;28;20476;-63
2023/04/24 01:32:04;;;;;;;14.15;13.45;;;;;;;;;;5040406;28;20031;-63
2023/04/24 01:34:30;;;;;;;15.48;14.57;;;;;;;;;;5037066;28;20108;-61
2023/04/24 01:36:56;;;;;;;15.80;14.80;;;;;;;;;;5037916;28;20041;-62
2023/04/24 01:39:23;;;;;;;16.10;15.07;;;;;;;;;;5035181;28;20022;-62
2023/04/24 01:41:50;;;;;;;15.27;14.38;;;;;;;;;;5035524;28;20052;-63
2023/04/24 01:44:15;;;;;;;14.30;13.60;;;;;;;;;;5039301;28;20496;-63
2023/04/24 01:46:41;;;;;;;14.60;13.80;;;;;;;;;;5037334;28;20103;-63
2023/04/24 01:49:06;;;;;;;15.40;14.50;;;;;;;;;;5040252;28;20500;-62
2023/04/24 01:51:32;;;;;;;16.33;15.27;;;;;;;;;;5035182;28;20025;-63
2023/04/24 01:53:57;;;;;;;14.68;13.88;;;;;;;;;;5036636;28;20032;-62
2023/04/24 01:56:22;;;;;;;14.63;13.82;;;;;;;;;;5038075;28;20381;-64
2023/04/24 01:58:49;;;;;;;15.18;14.27;;;;;;;;;;5036806;28;20389;-62
2023/04/24 02:01:17;;;;;;;14.93;14.13;;;;;;;;;;5036302;28;20064;-61
2023/04/24 02:03:43;;;;;;;15.48;14.57;;;;;;;;;;5041312;28;20053;-63
2023/04/24 02:06:08;;;;;;;15.18;14.27;;;;;;;;;;5039872;28;20094;-63
2023/04/24 02:08:33;;;;;;;14.30;13.57;;;;;;;;;;5036824;28;20032;-62
2023/04/24 02:10:59;;;;;;;15.52;14.63;;;;;;;;;;5038582;28;20485;-62
2023/04/24 02:13:24;;;;;;;16.13;15.13;;;;;;;;;;5038186;28;20594;-62
2023/04/24 02:15:49;;;;;;;15.90;14.90;;;;;;;;;;5034782;28;20459;-62
2023/04/24 02:18:15;;;;;;;15.25;14.35;;;;;;;;;;5037415;28;20496;-62
2023/04/24 02:20:40;;;;;;;15.10;14.20;;;;;;;;;;5037401;28;20033;-62
2023/04/24 02:23:06;;;;;;;14.55;13.77;;;;;;;;;;5044578;28;20021;-62
2023/04/24 02:25:31;;;;;;;14.50;13.70;;;;;;;;;;5037231;28;20028;-62
2023/04/24 02:27:56;;;;;;;15.70;14.70;;;;;;;;;;5038241;28;20028;-62
2023/04/24 02:30:21;;;;;;;15.18;14.27;;;;;;;;;;5035479;28;20056;-64
2023/04/24 02:32:47;;;;;;;14.95;14.10;;;;;;;;;;5035890;28;20033;-62
2023/04/24 02:35:12;;;;;;;14.80;14.00;;;;;;;;;;5043302;28;20028;-62
2023/04/24 02:37:37;;;;;;;14.40;13.60;;;;;;;;;;5038868;28;20021;-62
2023/04/24 02:40:03;;;;;;;16.35;15.25;;;;;;;;;;5039676;28;20033;-63
2023/04/24 02:42:29;;;;;;;14.40;13.60;;;;;;;;;;5043013;28;20591;-63
2023/04/24 02:44:54;;;;;;;15.18;14.27;;;;;;;;;;5040889;28;20036;-63
2023/04/24 02:47:19;;;;;;;14.38;13.57;;;;;;;;;;5047789;28;20485;-63
2023/04/24 02:49:45;;;;;;;13.73;13.02;;;;;;;;;;5042017;28;20032;-63
2023/04/24 02:52:10;;;;;;;15.55;14.60;;;;;;;;;;5041349;28;20519;-62
2023/04/24 02:54:35;;;;;;;15.18;14.27;;;;;;;;;;5038918;28;20050;-63
2023/04/24 02:57:01;;;;;;;14.50;13.70;;;;;;;;;;5041159;28;20037;-63
2023/04/24 02:59:28;;;;;;;14.55;13.75;;;;;;;;;;5041409;28;20033;-62
2023/04/24 03:01:54;;;;;;;15.10;14.20;;;;;;;;;;5037879;28;21757;-62
2023/04/24 03:04:20;;;;;;;15.27;14.35;;;;;;;;;;5039666;28;20067;-61
2023/04/24 03:06:45;;;;;;;16.17;15.07;;;;;;;;;;5037142;28;20025;-62
2023/04/24 03:09:11;;;;;;;14.52;13.73;;;;;;;;;;5042065;28;20443;-61
2023/04/24 03:11:36;;;;;;;14.70;13.80;;;;;;;;;;5039754;28;20033;-62
2023/04/24 03:14:02;;;;;;;15.00;14.10;;;;;;;;;;5042323;28;20029;-62
2023/04/24 03:16:27;;;;;;;14.63;13.82;;;;;;;;;;5038980;28;20175;-62
2023/04/24 03:18:52;;;;;;;16.38;15.27;;;;;;;;;;5038362;28;20033;-62
2023/04/24 03:21:18;;;;;;;14.98;14.07;;;;;;;;;;5042727;28;20029;-62
2023/04/24 03:23:43;;;;;;;15.07;14.18;;;;;;;;;;5038717;28;20033;-63
2023/04/24 03:26:08;;;;;;;15.48;14.50;;;;;;;;;;5042818;28;20112;-63
2023/04/24 03:28:34;;;;;;;14.38;13.57;;;;;;;;;;5042036;28;20098;-63
2023/04/24 03:30:59;;;;;;;15.48;14.48;;;;;;;;;;5038804;28;20435;-62
2023/04/24 03:33:25;;;;;;;14.50;13.60;;;;;;;;;;5038514;28;20163;-62
2023/04/24 03:35:50;;;;;;;13.00;12.40;;;;;;;;;;5041590;28;20035;-62
2023/04/24 03:38:15;;;;;;;14.82;13.90;;;;;;;;;;5039768;28;20037;-63
2023/04/24 03:40:41;;;;;;;13.23;12.52;;;;;;;;;;5037364;28;20025;-63
2023/04/24 03:43:06;;;;;;;13.90;13.10;;;;;;;;;;5040223;28;20025;-63
2023/04/24 03:45:31;;;;;;;14.30;13.50;;;;;;;;;;5036532;28;20025;-63
2023/04/24 03:47:56;;;;;;;14.45;13.65;;;;;;;;;;5040503;28;20025;-63
2023/04/24 03:50:22;;;;;;;13.55;12.85;;;;;;;;;;5039289;28;20074;-63
2023/04/24 03:52:47;;;;;;;14.70;13.82;;;;;;;;;;5039248;28;20457;-63
2023/04/24 03:55:13;;;;;;;13.10;12.50;;;;;;;;;;5048579;28;20025;-63
2023/04/24 03:57:41;;;;;;;14.20;13.40;;;;;;;;;;5049831;28;20496;-63
2023/04/24 04:00:08;;;;;;;15.48;14.57;;;;;;;;;;5047687;28;20770;-63
2023/04/24 04:02:34;;;;;;;13.65;12.95;;;;;;;;;;5040379;28;21804;-63
2023/04/24 04:04:59;;;;;;;12.88;12.27;;;;;;;;;;5052801;28;20038;-63
2023/04/24 04:07:25;;;;;;;13.57;12.88;;;;;;;;;;5046884;28;20028;-63
2023/04/24 04:09:50;;;;;;;15.30;14.40;;;;;;;;;;5036450;28;20029;-61
2023/04/24 04:12:16;;;;;;;13.52;12.82;;;;;;;;;;5039129;28;20025;-61
2023/04/24 04:14:41;;;;;;;13.93;13.20;;;;;;;;;;5039781;28;20115;-62
2023/04/24 04:17:06;;;;;;;13.75;13.05;;;;;;;;;;5041668;28;20131;-62
2023/04/24 04:19:32;;;;;;;13.95;13.25;;;;;;;;;;5038421;28;20030;-62
2023/04/24 04:21:57;;;;;;;15.25;14.40;;;;;;;;;;5038265;28;20028;-62
2023/04/24 04:24:23;;;;;;;14.02;13.32;;;;;;;;;;5043534;28;20480;-62
2023/04/24 04:26:50;;;;;;;14.23;13.52;;;;;;;;;;5039512;28;20393;-62
2023/04/24 04:29:16;;;;;;;14.05;13.35;;;;;;;;;;5033991;28;20031;-62
2023/04/24 04:31:41;;;;;;;13.93;13.23;;;;;;;;;;5038604;28;20021;-62
2023/04/24 04:34:07;;;;;;;14.82;14.02;;;;;;;;;;5036302;28;20036;-62
2023/04/24 04:36:36;;;;;;;15.48;14.60;;;;;;;;;;5036618;28;20120;-62
2023/04/24 04:39:02;;;;;;;14.25;13.55;;;;;;;;;;5038884;28;20025;-63
2023/04/24 04:41:27;;;;;;;13.77;13.07;;;;;;;;;;5035872;28;20025;-63
2023/04/24 04:43:53;;;;;;;14.57;13.82;;;;;;;;;;5038443;28;20593;-63
2023/04/24 04:46:18;;;;;;;14.55;13.80;;;;;;;;;;5041822;28;20021;-63
2023/04/24 04:48:44;;;;;;;14.23;13.52;;;;;;;;;;5042682;28;20025;-63
2023/04/24 04:51:09;;;;;;;14.05;13.35;;;;;;;;;;5041231;28;20082;-62
2023/04/24 04:53:35;;;;;;;13.05;12.45;;;;;;;;;;5039139;28;20079;-61
2023/04/24 04:56:00;;;;;;;15.50;14.65;;;;;;;;;;5036378;28;20064;-62
2023/04/24 04:58:26;;;;;;;14.13;13.43;;;;;;;;;;5037007;28;20035;-62
2023/04/24 05:00:52;;;;;;;14.02;13.32;;;;;;;;;;5040094;28;20121;-63
2023/04/24 05:03:17;;;;;;;13.90;13.20;;;;;;;;;;5036609;28;20029;-62
2023/04/24 05:05:43;;;;;;;13.93;13.23;;;;;;;;;;5038537;28;20031;-64
2023/04/24 05:08:08;;;;;;;13.95;13.25;;;;;;;;;;5036262;28;20025;-63
2023/04/24 05:10:34;;;;;;;13.45;12.82;;;;;;;;;;5038202;28;20025;-62
2023/04/24 05:13:00;;;;;;;14.73;13.93;;;;;;;;;;5034734;28;20024;-62
2023/04/24 05:15:26;;;;;;;14.10;13.40;;;;;;;;;;5039104;28;20025;-62
2023/04/24 05:17:51;;;;;;;14.45;13.75;;;;;;;;;;5036465;28;20040;-62
2023/04/24 05:20:17;;;;;;;13.65;12.95;;;;;;;;;;5037071;28;20412;-63
2023/04/24 05:22:42;;;;;;;13.13;12.52;;;;;;;;;;5038416;28;20132;-62
2023/04/24 05:25:08;;;;;;;14.02;13.32;;;;;;;;;;5040092;28;20028;-66
2023/04/24 05:27:33;;;;;;;13.68;12.98;;;;;;;;;;5038183;28;20132;-63
2023/04/24 05:29:59;;;;;;;13.68;13.00;;;;;;;;;;5038665;28;20036;-63
2023/04/24 05:32:25;;;;;;;14.35;13.65;;;;;;;;;;5037638;28;20506;-63
2023/04/24 05:34:50;;;;;;;13.27;12.68;;;;;;;;;;5037083;28;22275;-64
2023/04/24 05:37:16;;;;;;;13.82;13.13;;;;;;;;;;5044880;28;20025;-64
2023/04/24 05:39:41;;;;;;;14.00;13.30;;;;;;;;;;5046864;28;20033;-64
2023/04/24 05:42:06;;;;;;;13.02;12.43;;;;;;;;;;5047515;28;20104;-64
2023/04/24 05:44:32;;;;;;;13.30;12.70;;;;;;;;;;5043857;28;20511;-64
2023/04/24 05:46:57;;;;;;;13.43;12.82;;;;;;;;;;5037903;28;20017;-62
2023/04/24 05:49:23;;;;;;;12.68;12.07;;;;;;;;;;5042173;28;20025;-63
2023/04/24 05:51:48;;;;;;;14.18;13.48;;;;;;;;;;5043041;28;20031;-63
2023/04/24 05:54:13;;;;;;;13.07;12.48;;;;;;;;;;5042114;28;20631;-64
2023/04/24 05:56:39;;;;;;;14.55;13.85;;;;;;;;;;5033642;28;20033;-71
2023/04/24 05:59:04;;;;;;;14.07;13.38;;;;;;;;;;5047495;28;20024;-67
2023/04/24 06:01:31;;;;;;;14.57;13.88;;;;;;;;;;5042470;28;20041;-65
2023/04/24 06:03:56;;;;;;;14.48;13.77;;;;;;;;;;5043588;28;20024;-63
2023/04/24 06:06:22;;;;;;;14.00;13.30;;;;;;;;;;5039610;28;20110;-62
2023/04/24 06:08:47;;;;;;;15.57;14.77;;;;;;;;;;5046035;28;20107;-62
2023/04/24 06:11:12;;;;;;;16.13;15.32;;;;;;;;;;5045907;28;20065;-63
2023/04/24 06:13:38;;;;;;;13.60;12.98;;;;;;;;;;5047954;28;20024;-63
2023/04/24 06:16:03;;;;;;;14.50;13.80;;;;;;;;;;5047314;28;20262;-64
2023/04/24 06:18:28;;;;;;;14.73;14.02;;;;;;;;;;5046857;28;20021;-63
2023/04/24 06:20:55;;;;;;;14.32;13.63;;;;;;;;;;5047962;28;20817;-64
2023/04/24 06:23:20;;;;;;;13.70;13.05;;;;;;;;;;5046787;28;20049;-63
2023/04/24 06:25:46;;;;;;;14.20;13.50;;;;;;;;;;5043019;28;20519;-64
2023/04/24 06:28:11;;;;;;;14.88;14.10;;;;;;;;;;5047749;28;20079;-63
2023/04/24 06:30:36;;;;;;;15.18;14.38;;;;;;;;;;5046964;28;20025;-64
2023/04/24 06:33:01;;;;;;;14.70;14.00;;;;;;;;;;5051752;28;20020;-65
2023/04/24 06:35:27;;;;;;;14.48;13.77;;;;;;;;;;5049387;28;20032;-63
2023/04/24 06:37:52;;;;;;;13.60;12.93;;;;;;;;;;5048677;28;20037;-64
2023/04/24 06:40:18;;;;;;;14.30;13.60;;;;;;;;;;5045950;28;20029;-63
2023/04/24 06:42:43;;;;;;;13.02;12.43;;;;;;;;;;5049176;28;20032;-64
2023/04/24 06:45:09;;;;;;;13.35;12.75;;;;;;;;;;5052093;28;20025;-64
2023/04/24 06:47:35;;;;;;;14.57;13.88;;;;;;;;;;5044129;28;20114;-67
2023/04/24 06:50:00;;;;;;;15.00;14.25;;;;;;;;;;5049262;28;20025;-64
2023/04/24 06:52:27;;;;;;;13.80;13.13;;;;;;;;;;5045417;28;20063;-65
2023/04/24 06:54:52;;;;;;;13.27;12.68;;;;;;;;;;5055431;28;20443;-63
2023/04/24 06:57:17;;;;;;;13.10;12.50;;;;;;;;;;5041975;28;20063;-64
2023/04/24 06:59:45;;;;;;;13.93;13.23;;;;;;;;;;5045587;28;20071;-66
2023/04/24 07:02:10;;;;;;;13.95;13.25;;;;;;;;;;5041111;28;20478;-64
2023/04/24 07:04:36;;;;;;;13.45;12.85;;;;;;;;;;5046024;28;20053;-63
2023/04/24 07:07:02;;;;;;;14.75;14.05;;;;;;;;;;5039016;28;20021;-65
2023/04/24 07:09:27;;;;;;;14.27;13.57;;;;;;;;;;5040828;28;20392;-64
2023/04/24 07:11:53;;;;;;;14.40;13.70;;;;;;;;;;5040585;28;20404;-63
2023/04/24 07:14:18;;;;;;;13.10;12.50;;;;;;;;;;5050272;28;20568;-65
2023/04/24 07:16:45;;;;;;;14.02;13.32;;;;;;;;;;5055067;28;20025;-65
2023/04/24 07:19:10;;;;;;;14.55;13.85;;;;;;;;;;5040181;28;20048;-66
2023/04/24 07:21:35;;;;;;;14.82;14.13;;;;;;;;;;5046373;28;20021;-65
2023/04/24 07:24:01;;;;;;;14.52;13.82;;;;;;;;;;5045502;28;20033;-65
2023/04/24 07:26:27;;;;;;;15.07;14.27;;;;;;;;;;5047753;28;20388;-65
2023/04/24 07:28:53;;;;;;;14.10;13.40;;;;;;;;;;5043543;28;20029;-65
2023/04/24 07:31:18;;;;;;;15.32;14.52;;;;;;;;;;5042047;28;20472;-64
2023/04/24 07:33:44;;;;;;;14.38;13.68;;;;;;;;;;5051164;28;20472;-65
2023/04/24 07:36:15;;;;;;;14.25;13.55;;;;;;;;;;5051020;28;20140;-65
2023/04/24 07:38:40;;;;;;;14.35;13.65;;;;;;;;;;5039697;28;20033;-64
2023/04/24 07:41:06;;;;;;;13.63;12.93;;;;;;;;;;5051000;28;20082;-63
2023/04/24 07:43:31;;;;;;;15.32;14.52;;;;;;;;;;5040619;28;20017;-64
2023/04/24 07:45:56;;;;;;;14.38;13.68;;;;;;;;;;5050041;28;20079;-68
2023/04/24 07:48:22;;;;;;;14.50;13.75;;;;;;;;;;5042684;28;20017;-68
2023/04/24 07:50:47;;;;;;;14.13;13.43;;;;;;;;;;5043011;28;20393;-68
2023/04/24 07:53:12;;;;;;;15.20;14.40;;;;;;;;;;5041623;28;20115;-67
2023/04/24 07:55:38;;;;;;;15.23;14.43;;;;;;;;;;5044590;28;20013;-68
2023/04/24 07:58:03;;;;;;;15.40;14.60;;;;;;;;;;5044006;28;20033;-68
2023/04/24 08:00:29;;;;;;;16.25;15.35;;;;;;;;;;5041447;28;20053;-68
2023/04/24 08:02:54;;;;;;;16.25;15.35;;;;;;;;;;5042638;28;20029;-68
2023/04/24 08:05:19;;;;;;;14.90;14.10;;;;;;;;;;5042222;28;20079;-67
2023/04/24 08:07:48;;;;;;;14.98;14.18;;;;;;;;;;5037082;28;20056;-69
2023/04/24 08:10:13;;;;;;;16.23;15.32;;;;;;;;;;5035201;28;20117;-66
2023/04/24 08:12:39;;;;;;;14.98;14.18;;;;;;;;;;5038079;28;20100;-66
2023/04/24 08:15:05;;;;;;;14.90;14.10;;;;;;;;;;5044009;28;20125;-66
2023/04/24 08:17:30;;;;;;;14.50;13.70;;;;;;;;;;5041837;28;20071;-66
2023/04/24 08:20:01;;;;;;;15.70;14.80;;;;;;;;;;5047031;28;20024;-66
2023/04/24 08:22:27;;;;;;;15.52;14.63;;;;;;;;;;5052957;28;20061;-65
2023/04/24 08:24:52;;;;;;;16.45;15.45;;;;;;;;;;5046621;28;20497;-65
2023/04/24 08:27:17;;;;;;;15.55;14.65;;;;;;;;;;5039230;28;20021;-63
2023/04/24 08:29:44;;;;;;;15.40;14.50;;;;;;;;;;5040730;28;20468;-65
2023/04/24 08:32:09;;;;;;;14.90;14.10;;;;;;;;;;5046707;28;20496;-64
2023/04/24 08:34:34;;;;;;;15.45;14.55;;;;;;;;;;5044555;28;20112;-63
2023/04/24 08:37:00;;;;;;;16.20;15.27;;;;;;;;;;5051918;28;20028;-64
2023/04/24 08:39:25;;;;;;;13.45;12.75;;;;;;;;;;5051134;28;20551;-65
2023/04/24 08:41:51;;;;;;;15.60;14.70;;;;;;;;;;5037266;28;20365;-64
2023/04/24 08:44:17;;;;;;;15.05;14.23;;;;;;;;;;5053373;28;20401;-66
2023/04/24 08:46:45;;;;;;;16.30;15.32;;;;;;;;;;5039867;28;20037;-66
2023/04/24 08:49:11;;;;;;;15.45;14.55;;;;;;;;;;5040359;28;20041;-64
2023/04/24 08:51:36;;;;;;;14.75;13.95;;;;;;;;;;5045922;28;20393;-66
2023/04/24 08:54:03;;;;;;;15.63;14.73;;;;;;;;;;5044668;28;20082;-63
2023/04/24 08:56:30;;;;;;;14.68;13.88;;;;;;;;;;5047397;28;20508;-63
2023/04/24 08:58:56;;;;;;;15.35;14.45;;;;;;;;;;5049081;28;20037;-66
2023/04/24 09:01:23;;;;;;;14.70;13.90;;;;;;;;;;5044280;28;20049;-63
2023/04/24 09:03:49;;;;;;;15.43;14.52;;;;;;;;;;5042524;28;20057;-63
2023/04/24 09:06:14;;;;;;;14.98;14.18;;;;;;;;;;5046227;28;20052;-66
2023/04/24 09:08:41;;;;;;;14.77;13.98;;;;;;;;;;5044123;28;20029;-64
2023/04/24 09:11:06;;;;;;;17.33;16.25;;;;;;;;;;5036239;28;20456;-63
2023/04/24 09:13:32;;;;;;;15.48;14.57;;;;;;;;;;5042882;28;20139;-63
2023/04/24 09:15:57;;;;;;;16.08;15.13;;;;;;;;;;5042395;28;20043;-62
2023/04/24 09:18:22;;;;;;;15.18;14.32;;;;;;;;;;5037684;28;20033;-64
2023/04/24 09:21:06;;;;;;;15.10;14.27;;;;;;;;;;5034790;28;20074;-63
2023/04/24 09:23:32;;;;;;;15.97;15.03;;;;;;;;;;5049793;28;20052;-64
2023/04/24 09:26:00;;;;;;;15.13;14.23;;;;;;;;;;5035218;28;20324;-63
2023/04/24 09:28:45;;;;;;;14.18;13.38;;;;;;;;;;5044284;28;20048;-65
2023/04/24 09:31:21;;;;;;;15.35;14.48;;;;;;;;;;5046977;28;20389;-63
2023/04/24 09:34:08;;;;;;;15.15;14.27;;;;;;;;;;5044966;28;20037;-64
2023/04/24 09:36:38;;;;;;;13.95;13.25;;;;;;;;;;5041003;28;20032;-65
2023/04/24 09:39:05;;;;;;;15.45;14.55;;;;;;;;;;5034920;28;20029;-64
2023/04/24 09:41:31;;;;;;;14.55;13.75;;;;;;;;;;5040776;28;20389;-64
2023/04/24 09:43:57;;;;;;;15.90;14.95;;;;;;;;;;5043455;28;20389;-64
2023/04/24 09:46:32;;;;;;;14.80;14.00;;;;;;;;;;5044164;28;20025;-65
2023/04/24 09:49:07;;;;;;;15.55;14.65;;;;;;;;;;5045415;28;20025;-65
2023/04/24 09:51:38;;;;;;;14.60;13.80;;;;;;;;;;5046143;28;20040;-64
2023/04/24 09:54:04;;;;;;;16.77;15.75;;;;;;;;;;5040413;28;20017;-64
2023/04/24 09:56:32;;;;;;;14.23;13.43;;;;;;;;;;5051880;28;20025;-64
2023/04/24 09:59:04;;;;;;;15.85;14.95;;;;;;;;;;5038281;28;20032;-63
2023/04/24 10:01:30;;;;;;;15.85;14.95;;;;;;;;;;5039330;28;20638;-64
2023/04/24 10:03:58;;;;;;;15.20;14.30;;;;;;;;;;5045322;28;20113;-66
2023/04/24 10:06:30;;;;;;;13.90;13.18;;;;;;;;;;5043770;28;20017;-65
2023/04/24 10:08:58;;;;;;;14.50;13.70;;;;;;;;;;5038727;28;20017;-65
2023/04/24 10:11:23;;;;;;;14.45;13.65;;;;;;;;;;5038755;28;20131;-61
2023/04/24 10:13:48;;;;;;;14.60;13.80;;;;;;;;;;5039419;28;20108;-60
2023/04/24 10:16:14;;;;;;;16.15;15.15;;;;;;;;;;5038249;28;20036;-60
2023/04/24 10:18:40;;;;;;;14.43;13.63;;;;;;;;;;5041979;28;20083;-61
2023/04/24 10:21:05;;;;;;;14.70;13.90;;;;;;;;;;5040871;28;20147;-60
2023/04/24 10:23:32;;;;;;;14.32;13.52;;;;;;;;;;5043784;28;20025;-59
2023/04/24 10:25:57;;;;;;;14.45;13.65;;;;;;;;;;5049911;28;20104;-60
2023/04/24 10:28:24;;;;;;;14.65;13.85;;;;;;;;;;5044305;28;20604;-60
2023/04/24 10:30:50;;;;;;;14.70;13.90;;;;;;;;;;5046317;28;20021;-59
2023/04/24 10:33:16;;;;;;;13.68;12.98;;;;;;;;;;5038417;28;20518;-58
2023/04/24 10:35:43;;;;;;;13.35;12.65;;;;;;;;;;5036607;28;20061;-59
2023/04/24 10:38:13;;;;;;;13.90;13.20;;;;;;;;;;5038524;28;20025;-58
2023/04/24 10:40:38;;;;;;;14.52;13.73;;;;;;;;;;5048266;28;20075;-60
2023/04/24 10:43:06;;;;;;;14.07;13.27;;;;;;;;;;5038167;28;20029;-60
2023/04/24 10:45:31;;;;;;;16.33;15.32;;;;;;;;;;5038566;28;20518;-61
2023/04/24 10:47:57;;;;;;;14.80;13.98;;;;;;;;;;5047154;28;20544;-61
2023/04/24 10:50:22;;;;;;;13.98;13.23;;;;;;;;;;5043099;28;20041;-61
2023/04/24 10:52:50;;;;;;;14.32;13.52;;;;;;;;;;5041728;28;20052;-60
2023/04/24 10:55:16;;;;;;;14.52;13.73;;;;;;;;;;5060538;28;20070;-61
2023/04/24 10:58:01;;;;;;;14.90;14.02;;;;;;;;;;5048901;28;20764;-62
2023/04/24 11:00:27;;;;;;;13.90;13.15;;;;;;;;;;5052142;28;20053;-61
2023/04/24 11:02:52;;;;;;;15.95;14.98;;;;;;;;;;5045942;28;20025;-60
2023/04/24 11:05:19;;;;;;;15.02;14.13;;;;;;;;;;5051119;28;20392;-61
2023/04/24 11:08:03;;;;;;;14.88;14.02;;;;;;;;;;5051745;28;20472;-61
2023/04/24 11:10:28;;;;;;;15.30;14.40;;;;;;;;;;5045168;28;20484;-60
2023/04/24 11:12:53;;;;;;;14.30;13.50;;;;;;;;;;5044997;28;20082;-60
2023/04/24 11:15:19;;;;;;;15.23;14.32;;;;;;;;;;5049363;28;20023;-61
2023/04/24 11:17:45;;;;;;;15.90;14.90;;;;;;;;;;5036800;28;20028;-66
2023/04/24 11:20:11;;;;;;;13.25;12.55;;;;;;;;;;5046718;28;20021;-65
2023/04/24 11:22:42;;;;;;;13.48;12.77;;;;;;;;;;5049891;28;20025;-65
2023/04/24 11:25:08;;;;;;;13.38;12.68;;;;;;;;;;5040998;28;20633;-64
2023/04/24 11:27:41;;;;;;;14.48;13.68;;;;;;;;;;5044459;28;20021;-64
2023/04/24 11:30:06;;;;;;;15.57;14.68;;;;;;;;;;5036761;28;20059;-64
2023/04/24 11:32:41;;;;;;;15.98;15.02;;;;;;;;;;5039925;28;20033;-64
2023/04/24 11:35:16;;;;;;;14.55;13.75;;;;;;;;;;5040364;28;20028;-65
2023/04/24 11:37:42;;;;;;;14.82;14.02;;;;;;;;;;5047272;28;20018;-64
2023/04/24 11:40:11;;;;;;;13.73;13.02;;;;;;;;;;5042943;28;21690;-64
2023/04/24 11:42:37;;;;;;;14.45;13.65;;;;;;;;;;5043488;28;20028;-63
2023/04/24 11:45:07;;;;;;;16.80;15.80;;;;;;;;;;5034247;28;20033;-62
2023/04/24 11:47:35;;;;;;;16.00;15.07;;;;;;;;;;5039479;28;20021;-63
2023/04/24 11:50:01;;;;;;;15.13;14.25;;;;;;;;;;5051588;28;20016;-63
2023/04/24 11:52:26;;;;;;;13.98;13.25;;;;;;;;;;5047226;28;20042;-64
2023/04/24 11:54:52;;;;;;;14.77;13.98;;;;;;;;;;5045415;28;20040;-63
2023/04/24 11:57:21;;;;;;;14.15;13.38;;;;;;;;;;5045157;28;20420;-64
2023/04/24 11:59:46;;;;;;;15.15;14.25;;;;;;;;;;5047043;28;20029;-62
2023/04/24 12:02:25;;;;;;;14.88;14.05;;;;;;;;;;5045280;28;20052;-64
2023/04/24 12:04:51;;;;;;;15.05;14.15;;;;;;;;;;5046915;28;20108;-62
2023/04/24 12:07:18;;;;;;;15.55;14.65;;;;;;;;;;5037869;28;20115;-62
2023/04/24 12:09:45;;;;;;;14.40;13.60;;;;;;;;;;5041518;28;20075;-62
2023/04/24 12:12:11;;;;;;;14.27;13.48;;;;;;;;;;5035873;28;20028;-63
2023/04/24 12:14:43;;;;;;;16.42;15.43;;;;;;;;;;5036437;28;20021;-64
2023/04/24 12:17:08;;;;;;;14.82;14.02;;;;;;;;;;5039377;28;20546;-64
2023/04/24 12:19:34;;;;;;;14.70;13.90;;;;;;;;;;5038502;28;20025;-63
2023/04/24 12:22:04;;;;;;;13.98;13.25;;;;;;;;;;5047694;28;20100;-65
2023/04/24 12:24:30;;;;;;;14.50;13.70;;;;;;;;;;5040003;28;20090;-63
2023/04/24 12:26:56;;;;;;;15.73;14.82;;;;;;;;;;5043180;28;20029;-61
2023/04/24 12:29:22;;;;;;;14.38;13.57;;;;;;;;;;5037159;28;20484;-63
2023/04/24 12:31:47;;;;;;;15.15;14.25;;;;;;;;;;5044264;28;20024;-62
2023/04/24 12:34:20;;;;;;;15.25;14.35;;;;;;;;;;5046801;28;20031;-64
2023/04/24 12:36:46;;;;;;;15.10;14.25;;;;;;;;;;5033996;28;20032;-64
2023/04/24 12:39:14;;;;;;;14.98;14.07;;;;;;;;;;5048780;28;20041;-63
2023/04/24 12:41:49;;;;;;;15.57;14.68;;;;;;;;;;5037154;28;20040;-65
2023/04/24 12:44:15;;;;;;;14.50;13.70;;;;;;;;;;5038247;28;20040;-63
2023/04/24 12:46:40;;;;;;;14.60;13.80;;;;;;;;;;5045040;28;20385;-62
2023/04/24 12:49:06;;;;;;;13.63;12.93;;;;;;;;;;5039904;28;20034;-63
2023/04/24 12:51:31;;;;;;;14.88;14.05;;;;;;;;;;5037586;28;20020;-62
2023/04/24 12:53:56;;;;;;;14.57;13.77;;;;;;;;;;5043585;28;20374;-63
2023/04/24 12:56:22;;;;;;;13.45;12.75;;;;;;;;;;5046284;28;20027;-63
2023/04/24 12:58:48;;;;;;;14.65;13.85;;;;;;;;;;5039067;28;20032;-63
2023/04/24 13:01:13;;;;;;;15.90;14.90;;;;;;;;;;5039546;28;20083;-62
2023/04/24 13:03:38;;;;;;;15.35;14.45;;;;;;;;;;5051610;28;20033;-63
2023/04/24 13:06:04;;;;;;;14.57;13.77;;;;;;;;;;5039174;28;20488;-62
2023/04/24 13:08:29;;;;;;;15.23;14.32;;;;;;;;;;5037222;28;20120;-62
2023/04/24 13:10:54;;;;;;;15.05;14.15;;;;;;;;;;5040720;28;20034;-63
2023/04/24 13:13:20;;;;;;;15.88;14.93;;;;;;;;;;5040109;28;20488;-63
2023/04/24 13:15:45;;;;;;;14.40;13.60;;;;;;;;;;5047066;28;20116;-62
2023/04/24 13:18:10;;;;;;;15.13;14.23;;;;;;;;;;5042915;28;20079;-65
2023/04/24 13:20:36;;;;;;;16.77;15.70;;;;;;;;;;5029636;28;20377;-60
2023/04/24 13:23:01;;;;;;;13.73;13.00;;;;;;;;;;5038304;28;20044;-64
2023/04/24 13:25:27;;;;;;;14.25;13.45;;;;;;;;;;5042339;28;20036;-63
2023/04/24 13:27:52;;;;;;;15.20;14.30;;;;;;;;;;5043276;28;20052;-62
2023/04/24 13:30:18;;;;;;;15.15;14.25;;;;;;;;;;5047007;28;20511;-62
2023/04/24 13:32:43;;;;;;;13.98;13.18;;;;;;;;;;5043985;28;20033;-62
2023/04/24 13:35:08;;;;;;;14.45;13.65;;;;;;;;;;5043331;28;20511;-63
2023/04/24 13:37:34;;;;;;;14.57;13.77;;;;;;;;;;5038877;28;20028;-64
2023/04/24 13:40:00;;;;;;;15.88;14.88;;;;;;;;;;5035803;28;20112;-63
2023/04/24 13:42:25;;;;;;;16.17;15.18;;;;;;;;;;5041920;28;20025;-63
2023/04/24 13:44:52;;;;;;;15.23;14.32;;;;;;;;;;5041503;28;20028;-64
2023/04/24 13:47:17;;;;;;;14.98;14.07;;;;;;;;;;5034485;28;20397;-64
2023/04/24 13:49:42;;;;;;;15.25;14.35;;;;;;;;;;5038329;28;20028;-64
2023/04/24 13:52:10;;;;;;;15.27;14.38;;;;;;;;;;5036607;28;20073;-63
2023/04/24 13:54:35;;;;;;;15.02;14.13;;;;;;;;;;5037592;28;20340;-65
2023/04/24 13:57:00;;;;;;;14.88;14.02;;;;;;;;;;5040918;28;20487;-64
2023/04/24 13:59:26;;;;;;;14.13;13.32;;;;;;;;;;5051884;28;20025;-64
2023/04/24 14:01:51;;;;;;;15.02;14.13;;;;;;;;;;5033299;28;20130;-65
2023/04/24 14:04:16;;;;;;;14.70;13.90;;;;;;;;;;5040034;28;20025;-63
2023/04/24 14:06:42;;;;;;;15.57;14.65;;;;;;;;;;5042044;28;20070;-65
2023/04/24 14:09:07;;;;;;;14.95;14.05;;;;;;;;;;5035398;28;20166;-63
2023/04/24 14:11:33;;;;;;;14.45;13.65;;;;;;;;;;5047390;28;20061;-64